createdAt,value
2018-09-24T00:00:12.113Z,38.10
2018-09-24T00:02:40.995Z,44.90
2018-09-24T00:05:10.092Z,42.30
2018-09-24T00:07:39.122Z,41.43
2018-09-24T00:10:08.143Z,46.63
2018-09-24T00:12:37.326Z,43.73
2018-09-24T00:15:06.345Z,41.20
2018-09-24T00:17:35.486Z,42.37
2018-09-24T00:20:04.549Z,45.03
2018-09-24T00:22:33.656Z,46.43
2018-09-24T00:25:02.930Z,46.77
2018-09-24T00:27:32.111Z,48.03
2018-09-24T00:30:01.200Z,51.40
2018-09-24T00:32:30.269Z,39.27
2018-09-24T00:34:59.465Z,41.17
2018-09-24T00:37:28.610Z,42.90
2018-09-24T00:39:57.650Z,44.60
2018-09-24T00:42:27.329Z,42.17
2018-09-24T00:44:56.396Z,36.57
2018-09-24T00:47:25.534Z,43.43
2018-09-24T00:49:54.683Z,42.50
2018-09-24T00:52:23.750Z,50.40
2018-09-24T00:54:52.805Z,44.93
2018-09-24T00:57:21.883Z,39.07
2018-09-24T00:59:50.948Z,38.97
2018-09-24T01:02:20.095Z,40.50
2018-09-24T01:04:49.148Z,39.33
2018-09-24T01:07:18.282Z,41.60
2018-09-24T01:09:47.744Z,35.43
2018-09-24T01:12:16.881Z,45.63
2018-09-24T01:14:45.925Z,47.33
2018-09-24T01:17:15.171Z,40.87
2018-09-24T01:19:44.614Z,41.97
2018-09-24T01:22:13.729Z,40.53
2018-09-24T01:24:42.865Z,41.83
2018-09-24T01:27:11.946Z,42.33
2018-09-24T01:29:41.092Z,40.57
2018-09-24T01:32:10.293Z,38.70
2018-09-24T01:34:39.339Z,45.23
2018-09-24T01:37:08.486Z,45.47
2018-09-24T01:39:37.596Z,44.73
2018-09-24T01:42:06.666Z,40.67
2018-09-24T01:44:36.147Z,40.90
2018-09-24T01:47:05.167Z,37.87
2018-09-24T01:49:34.655Z,39.67
2018-09-24T01:52:03.998Z,38.67
2018-09-24T01:54:33.034Z,43.90
2018-09-24T01:57:02.309Z,37.83
2018-09-24T01:59:31.423Z,43.80
2018-09-24T02:02:00.525Z,39.60
2018-09-24T02:04:29.766Z,41.03
2018-09-24T02:07:02.054Z,40.60
2018-09-24T02:09:31.575Z,39.53
2018-09-24T02:12:06.198Z,38.20
2018-09-24T02:14:35.637Z,38.43
2018-09-24T02:17:04.774Z,36.37
2018-09-24T02:19:34.226Z,33.90
2018-09-24T02:22:03.362Z,33.47
2018-09-24T02:24:32.706Z,34.47
2018-09-24T02:27:01.847Z,37.93
2018-09-24T02:29:30.982Z,38.63
2018-09-24T02:32:00.108Z,42.23
2018-09-24T02:34:29.416Z,44.13
2018-09-24T02:36:58.538Z,44.53
2018-09-24T02:39:27.601Z,42.10
2018-09-24T02:41:57.255Z,36.23
2018-09-24T02:44:27.877Z,38.37
2018-09-24T02:46:57.760Z,39.87
2018-09-24T02:49:26.752Z,46.07
2018-09-24T02:51:57.232Z,47.07
2018-09-24T02:54:26.375Z,47.83
2018-09-24T02:56:55.900Z,46.73
2018-09-24T02:59:24.883Z,45.47
2018-09-24T03:01:53.940Z,48.83
2018-09-24T03:04:23.413Z,47.90
2018-09-24T03:06:52.837Z,49.50
2018-09-24T03:09:22.066Z,41.47
2018-09-24T03:11:51.206Z,40.73
2018-09-24T03:14:27.829Z,39.97
2018-09-24T03:16:57.302Z,38.30
2018-09-24T03:19:26.375Z,37.13
2018-09-24T03:21:55.518Z,44.67
2018-09-24T03:24:25.135Z,45.57
2018-09-24T03:26:54.482Z,53.17
2018-09-24T03:29:24.753Z,44.00
2018-09-24T03:31:54.144Z,50.03
2018-09-24T03:34:23.193Z,57.93
2018-09-24T03:36:52.730Z,45.10
2018-09-24T03:39:21.921Z,66.43
2018-09-24T03:41:51.264Z,83.27
2018-09-24T03:44:20.404Z,63.27
2018-09-24T03:46:49.387Z,97.93
2018-09-24T03:49:18.555Z,282.93
2018-09-24T03:51:48.142Z,158.50
2018-09-24T03:54:17.397Z,80.37
2018-09-24T03:56:46.623Z,77.83
2018-09-24T03:59:15.630Z,46.33
2018-09-24T04:01:44.765Z,71.20
2018-09-24T04:04:18.732Z,210.00
2018-09-24T04:06:52.686Z,97.20
2018-09-24T04:09:27.238Z,143.83
2018-09-24T04:12:01.608Z,137.30
2018-09-24T04:14:35.530Z,79.03
2018-09-24T04:17:09.470Z,127.70
2018-09-24T04:19:44.604Z,68.93
2018-09-24T04:22:18.588Z,207.53
2018-09-24T04:24:52.521Z,222.50
2018-09-24T04:27:26.941Z,176.07
2018-09-24T04:30:00.916Z,176.50
2018-09-24T04:32:34.929Z,121.00
2018-09-24T04:35:08.894Z,189.13
2018-09-24T04:37:42.986Z,160.90
2018-09-24T04:40:17.099Z,423.97
2018-09-24T04:42:51.191Z,74.80
2018-09-24T04:45:25.224Z,82.57
2018-09-24T04:47:59.662Z,48.90
2018-09-24T04:50:33.680Z,139.07
2018-09-24T04:53:07.667Z,234.00
2018-09-24T04:55:41.861Z,396.13
2018-09-24T04:58:15.794Z,103.80
2018-09-24T05:00:50.233Z,94.37
2018-09-24T05:03:24.440Z,42.43
2018-09-24T05:05:59.970Z,41.47
2018-09-24T05:08:33.947Z,35.87
2018-09-24T05:11:08.538Z,44.00
2018-09-24T05:13:42.767Z,37.50
2018-09-24T05:16:16.871Z,36.53
2018-09-24T05:18:50.870Z,32.50
2018-09-24T05:21:24.945Z,27.30
2018-09-24T05:23:59.303Z,26.37
2018-09-24T05:26:33.354Z,28.97
2018-09-24T05:29:07.582Z,27.73
2018-09-24T05:31:41.657Z,24.20
2018-09-24T05:34:15.648Z,28.23
2018-09-24T05:36:49.629Z,28.13
2018-09-24T05:39:23.807Z,31.97
2018-09-24T05:41:57.760Z,29.77
2018-09-24T05:44:31.681Z,35.70
2018-09-24T05:47:05.865Z,123.93
2018-09-24T05:49:40.307Z,110.47
2018-09-24T05:52:14.241Z,49.80
2018-09-24T05:54:48.475Z,361.40
2018-09-24T05:57:22.525Z,97.30
2018-09-24T05:59:56.510Z,73.47
2018-09-24T06:02:30.643Z,82.40
2018-09-24T06:05:04.628Z,38.00
2018-09-24T06:07:38.579Z,37.10
2018-09-24T06:10:13.115Z,41.77
2018-09-24T06:12:47.112Z,43.93
2018-09-24T06:15:21.528Z,33.07
2018-09-24T06:17:55.615Z,34.53
2018-09-24T06:20:29.951Z,30.63
2018-09-24T06:23:04.714Z,31.73
2018-09-24T06:25:38.670Z,30.13
2018-09-24T06:28:12.859Z,31.47
2018-09-24T06:30:47.023Z,33.83
2018-09-24T06:33:21.440Z,31.47
2018-09-24T06:35:55.748Z,33.23
2018-09-24T06:38:30.058Z,37.43
2018-09-24T06:41:04.166Z,41.53
2018-09-24T06:43:38.323Z,46.77
2018-09-24T06:46:12.598Z,41.90
2018-09-24T06:48:47.596Z,35.57
2018-09-24T06:51:21.566Z,41.03
2018-09-24T06:53:55.667Z,39.20
2018-09-24T06:56:29.706Z,36.27
2018-09-24T06:59:03.850Z,33.70
2018-09-24T07:01:37.842Z,39.93
2018-09-24T07:04:11.964Z,37.07
2018-09-24T07:06:45.973Z,39.53
2018-09-24T07:09:20.052Z,31.33
2018-09-24T07:11:54.083Z,36.93
2018-09-24T07:14:28.429Z,35.03
2018-09-24T07:17:02.755Z,34.80
2018-09-24T07:19:37.140Z,37.10
2018-09-24T07:22:11.208Z,34.40
2018-09-24T07:24:45.555Z,28.43
2018-09-24T07:27:19.578Z,31.97
2018-09-24T07:29:53.658Z,34.63
2018-09-24T07:32:27.967Z,31.90
2018-09-24T07:35:02.092Z,36.53
2018-09-24T07:37:36.799Z,29.77
2018-09-24T07:40:11.250Z,30.93
2018-09-24T07:42:45.195Z,29.83
2018-09-24T07:45:19.105Z,36.20
2018-09-24T07:47:53.421Z,31.60
2018-09-24T07:50:27.584Z,30.57
2018-09-24T07:53:01.924Z,22.47
2018-09-24T07:55:36.188Z,24.73
2018-09-24T07:58:10.691Z,30.33
2018-09-24T08:00:45.203Z,30.60
2018-09-24T08:03:19.400Z,28.63
2018-09-24T08:05:53.515Z,23.30
2018-09-24T08:08:27.623Z,20.40
2018-09-24T08:11:01.852Z,23.77
2018-09-24T08:13:36.283Z,17.07
2018-09-24T08:16:10.494Z,20.37
2018-09-24T08:18:44.531Z,22.87
2018-09-24T08:21:18.899Z,19.60
2018-09-24T08:23:53.354Z,21.67
2018-09-24T08:26:27.293Z,20.47
2018-09-24T08:29:01.489Z,21.17
2018-09-24T08:31:35.563Z,19.17
2018-09-24T08:34:09.526Z,15.83
2018-09-24T08:36:43.894Z,17.03
2018-09-24T08:39:17.956Z,16.13
2018-09-24T08:41:51.991Z,12.17
2018-09-24T08:44:26.034Z,18.47
2018-09-24T08:47:00.254Z,17.33
2018-09-24T08:49:34.577Z,15.77
2018-09-24T08:52:08.914Z,14.33
2018-09-24T08:54:43.272Z,17.20
2018-09-24T08:57:17.302Z,17.87
2018-09-24T08:59:51.444Z,18.73
2018-09-24T09:02:25.564Z,13.97
2018-09-24T09:05:00.215Z,16.50
2018-09-24T09:07:34.531Z,16.50
2018-09-24T09:10:08.638Z,16.97
2018-09-24T09:12:42.722Z,15.50
2018-09-24T09:15:16.873Z,16.73
2018-09-24T09:17:51.094Z,14.77
2018-09-24T09:20:25.403Z,14.10
2018-09-24T09:22:59.696Z,12.67
2018-09-24T09:25:33.868Z,15.70
2018-09-24T09:28:07.942Z,11.17
2018-09-24T09:30:42.066Z,11.67
2018-09-24T09:33:16.282Z,10.60
2018-09-24T09:35:50.294Z,10.77
2018-09-24T09:38:24.312Z,10.63
2018-09-24T09:40:58.717Z,9.93
2018-09-24T09:43:33.094Z,12.27
2018-09-24T09:46:07.063Z,8.70
2018-09-24T09:48:41.347Z,9.37
2018-09-24T09:51:15.694Z,10.13
2018-09-24T09:53:49.842Z,10.20
2018-09-24T09:56:23.881Z,10.77
2018-09-24T09:58:57.891Z,9.07
2018-09-24T10:01:32.021Z,9.80
2018-09-24T10:04:06.151Z,9.97
2018-09-24T10:06:40.121Z,11.37
2018-09-24T10:09:14.427Z,13.97
2018-09-24T10:11:48.896Z,10.87
2018-09-24T10:14:22.921Z,14.30
2018-09-24T10:16:57.038Z,18.57
2018-09-24T10:19:31.113Z,19.67
2018-09-24T10:22:05.308Z,15.20
2018-09-24T10:24:39.918Z,15.23
2018-09-24T10:27:14.420Z,19.13
2018-09-24T10:29:48.426Z,14.80
2018-09-24T10:32:22.674Z,17.40
2018-09-24T10:34:56.667Z,16.47
2018-09-24T10:37:30.731Z,11.50
2018-09-24T10:40:04.855Z,15.90
2018-09-24T10:42:38.970Z,12.40
2018-09-24T10:45:13.250Z,15.30
2018-09-24T10:47:47.233Z,16.90
2018-09-24T10:50:21.407Z,15.73
2018-09-24T10:52:55.470Z,19.60
2018-09-24T10:55:29.515Z,16.80
2018-09-24T10:58:03.718Z,15.23
2018-09-24T11:00:37.894Z,20.50
2018-09-24T11:03:11.891Z,16.93
2018-09-24T11:05:46.286Z,21.90
2018-09-24T11:08:20.350Z,16.37
2018-09-24T11:10:54.347Z,15.90
2018-09-24T11:13:28.796Z,21.00
2018-09-24T11:16:03.180Z,15.43
2018-09-24T11:18:37.186Z,17.43
2018-09-24T11:21:11.224Z,15.90
2018-09-24T11:23:45.213Z,13.20
2018-09-24T11:28:53.740Z,14.70
2018-09-24T11:31:27.790Z,15.27
2018-09-24T11:34:01.898Z,15.17
2018-09-24T11:36:35.920Z,16.37
2018-09-24T11:39:12.062Z,16.13
2018-09-24T11:41:46.175Z,11.73
2018-09-24T11:44:20.372Z,10.47
2018-09-24T11:46:54.398Z,12.27
2018-09-24T11:49:28.403Z,11.00
2018-09-24T11:52:02.724Z,12.90
2018-09-24T11:54:36.950Z,12.10
2018-09-24T11:57:11.215Z,8.47
2018-09-24T11:59:45.115Z,11.20
2018-09-24T12:02:19.176Z,12.47
2018-09-24T12:04:53.588Z,10.53
2018-09-24T12:07:28.128Z,11.10
2018-09-24T12:10:02.617Z,14.47
2018-09-24T12:12:36.771Z,14.70
2018-09-24T12:15:11.391Z,16.17
2018-09-24T12:17:45.302Z,12.47
2018-09-24T12:20:19.382Z,17.73
2018-09-24T12:22:53.536Z,12.37
2018-09-24T12:25:27.460Z,13.83
2018-09-24T12:28:01.469Z,13.77
2018-09-24T12:30:35.575Z,12.83
2018-09-24T12:33:09.879Z,17.20
2018-09-24T12:35:44.330Z,12.63
2018-09-24T12:38:18.619Z,13.53
2018-09-24T12:40:52.535Z,12.33
2018-09-24T12:43:26.482Z,18.07
2018-09-24T12:46:00.571Z,12.93
2018-09-24T12:48:34.821Z,13.53
2018-09-24T12:51:08.955Z,12.77
2018-09-24T12:53:42.984Z,14.33
2018-09-24T12:56:16.949Z,21.23
2018-09-24T12:58:50.903Z,20.43
2018-09-24T13:01:25.272Z,14.50
2018-09-24T13:03:59.412Z,15.57
2018-09-24T13:06:33.677Z,16.67
2018-09-24T13:09:07.778Z,13.77
2018-09-24T13:11:41.757Z,12.63
2018-09-24T13:14:15.987Z,14.03
2018-09-24T13:16:50.016Z,13.03
2018-09-24T13:19:24.640Z,16.63
2018-09-24T13:21:59.049Z,14.13
2018-09-24T13:24:33.004Z,19.37
2018-09-24T13:27:07.341Z,13.77
2018-09-24T13:29:41.336Z,13.03
2018-09-24T13:32:15.492Z,12.87
2018-09-24T13:34:49.614Z,14.27
2018-09-24T13:37:23.770Z,11.00
2018-09-24T13:39:57.696Z,12.03
2018-09-24T13:42:31.697Z,12.43
2018-09-24T13:45:06.123Z,12.47
2018-09-24T13:47:40.232Z,16.53
2018-09-24T13:50:14.416Z,12.97
2018-09-24T13:52:48.340Z,12.90
2018-09-24T13:55:22.504Z,10.53
2018-09-24T13:57:56.726Z,14.13
2018-09-24T14:00:30.790Z,13.20
2018-09-24T14:03:04.846Z,10.57
2018-09-24T14:05:39.119Z,11.87
2018-09-24T14:08:13.118Z,15.43
2018-09-24T14:10:47.058Z,15.30
2018-09-24T14:13:21.071Z,14.93
2018-09-24T14:15:55.178Z,16.43
2018-09-24T14:18:29.657Z,13.60
2018-09-24T14:21:03.742Z,13.53
2018-09-24T14:23:38.148Z,16.00
2018-09-24T14:26:12.462Z,15.20
2018-09-24T14:28:46.692Z,18.97
2018-09-24T14:31:21.229Z,17.53
2018-09-24T14:33:55.473Z,23.37
2018-09-24T14:36:29.586Z,21.37
2018-09-24T14:39:03.515Z,14.03
2018-09-24T14:41:37.618Z,16.43
2018-09-24T14:44:11.850Z,14.90
2018-09-24T14:46:45.870Z,18.33
2018-09-24T14:49:19.836Z,18.80
2018-09-24T14:51:53.998Z,17.30
2018-09-24T14:54:28.030Z,15.03
2018-09-24T14:57:01.923Z,14.40
2018-09-24T14:59:35.842Z,14.63
2018-09-24T15:02:09.885Z,15.63
2018-09-24T15:04:43.906Z,17.37
2018-09-24T15:07:18.045Z,16.27
2018-09-24T15:09:52.030Z,16.90
2018-09-24T15:12:26.278Z,17.07
2018-09-24T15:15:00.390Z,19.80
2018-09-24T15:17:34.505Z,18.63
2018-09-24T15:20:08.539Z,17.50
2018-09-24T15:22:42.638Z,19.27
2018-09-24T15:25:16.770Z,16.57
2018-09-24T15:27:50.809Z,17.57
2018-09-24T15:30:24.834Z,21.60
2018-09-24T15:32:58.918Z,21.10
2018-09-24T15:35:33.100Z,27.40
2018-09-24T15:38:07.146Z,19.17
2018-09-24T15:40:41.121Z,20.20
2018-09-24T15:43:15.145Z,17.80
2018-09-24T15:45:49.123Z,20.67
2018-09-24T15:48:23.275Z,18.63
2018-09-24T15:50:57.213Z,17.50
2018-09-24T15:53:31.514Z,17.53
2018-09-24T15:56:05.496Z,16.17
2018-09-24T15:58:39.674Z,15.47
2018-09-24T16:01:13.938Z,12.70
2018-09-24T16:03:47.943Z,15.70
2018-09-24T16:06:22.041Z,17.40
2018-09-24T16:08:56.228Z,14.97
2018-09-24T16:11:30.093Z,17.63
2018-09-24T16:14:04.200Z,16.70
2018-09-24T16:16:38.170Z,14.03
2018-09-24T16:19:12.790Z,17.17
2018-09-24T16:21:46.932Z,15.70
2018-09-24T16:24:21.016Z,16.73
2018-09-24T16:26:55.020Z,17.23
2018-09-24T16:29:29.270Z,20.33
2018-09-24T16:32:03.520Z,15.57
2018-09-24T16:34:37.420Z,16.43
2018-09-24T16:37:11.719Z,15.23
2018-09-24T16:39:45.891Z,24.07
2018-09-24T16:42:19.911Z,38.07
2018-09-24T16:44:54.058Z,70.23
2018-09-24T16:47:28.303Z,70.20
2018-09-24T16:50:02.583Z,65.63
2018-09-24T16:52:36.718Z,63.83
2018-09-24T16:55:10.803Z,68.67
2018-09-24T16:57:45.035Z,54.63
2018-09-24T17:00:19.252Z,48.03
2018-09-24T17:02:53.435Z,67.60
2018-09-24T17:05:27.362Z,49.27
2018-09-24T17:08:01.681Z,57.93
2018-09-24T17:10:35.772Z,50.47
2018-09-24T17:13:09.900Z,44.40
2018-09-24T17:15:44.147Z,38.77
2018-09-24T17:18:18.260Z,43.63
2018-09-24T17:20:52.860Z,43.43
2018-09-24T17:23:27.222Z,43.57
2018-09-24T17:26:01.393Z,30.40
2018-09-24T17:28:35.334Z,48.03
2018-09-24T17:31:09.683Z,38.67
2018-09-24T17:33:43.887Z,44.10
2018-09-24T17:36:17.894Z,34.03
2018-09-24T17:38:52.194Z,52.07
2018-09-24T17:41:26.379Z,49.17
2018-09-24T17:44:00.554Z,45.87
2018-09-24T17:46:34.638Z,46.47
2018-09-24T17:49:08.626Z,54.20
2018-09-24T17:51:42.937Z,44.63
2018-09-24T17:54:16.972Z,47.40
2018-09-24T17:56:50.980Z,63.50
2018-09-24T17:59:25.161Z,50.27
2018-09-24T18:01:59.302Z,51.47
2018-09-24T18:04:33.444Z,70.30
2018-09-24T18:07:07.651Z,57.27
2018-09-24T18:09:41.788Z,49.37
2018-09-24T18:12:15.737Z,44.33
2018-09-24T18:14:49.884Z,50.07
2018-09-24T18:17:23.829Z,54.53
2018-09-24T18:19:58.173Z,54.57
2018-09-24T18:22:32.700Z,49.77
2018-09-24T18:25:06.713Z,40.30
2018-09-24T18:27:40.808Z,38.63
2018-09-24T18:30:14.943Z,45.07
2018-09-24T18:32:56.270Z,44.80
2018-09-24T18:35:30.254Z,46.13
2018-09-24T18:38:04.647Z,42.50
2018-09-24T18:40:38.790Z,40.07
2018-09-24T18:43:12.872Z,33.30
2018-09-24T18:45:46.896Z,26.13
2018-09-24T18:48:20.921Z,28.40
2018-09-24T18:50:55.138Z,28.77
2018-09-24T18:53:29.248Z,28.63
2018-09-24T18:56:03.390Z,18.83
2018-09-24T18:58:37.260Z,23.47
2018-09-24T19:01:11.537Z,32.10
2018-09-24T19:03:45.994Z,22.97
2018-09-24T19:06:20.087Z,22.83
2018-09-24T19:08:54.186Z,20.53
2018-09-24T19:11:28.290Z,20.80
2018-09-24T19:14:02.467Z,24.83
2018-09-24T19:16:36.627Z,16.53
2018-09-24T19:19:10.721Z,25.90
2018-09-24T19:21:44.752Z,25.50
2018-09-24T19:24:18.738Z,25.50
2018-09-24T19:26:53.364Z,19.13
2018-09-24T19:29:27.334Z,20.07
2018-09-24T19:32:01.610Z,17.57
2018-09-24T19:34:35.696Z,18.13
2018-09-24T19:37:09.745Z,25.57
2018-09-24T19:39:43.629Z,16.67
2018-09-24T19:42:17.733Z,20.33
2018-09-24T19:44:51.749Z,20.17
2018-09-24T19:47:25.664Z,26.87
2018-09-24T19:50:00.044Z,18.50
2018-09-24T19:52:33.947Z,16.93
2018-09-24T19:55:08.404Z,23.00
2018-09-24T19:57:42.512Z,24.57
2018-09-24T20:00:16.824Z,16.37
2018-09-24T20:02:51.258Z,21.10
2018-09-24T20:05:25.497Z,21.10
2018-09-24T20:07:59.674Z,23.20
2018-09-24T20:10:33.773Z,21.13
2018-09-24T20:13:08.072Z,21.30
2018-09-24T20:15:42.348Z,20.40
2018-09-24T20:18:16.445Z,25.03
2018-09-24T20:20:50.554Z,15.47
2018-09-24T20:23:25.005Z,18.80
2018-09-24T20:25:58.864Z,20.03
2018-09-24T20:28:33.176Z,22.53
2018-09-24T20:31:07.280Z,15.87
2018-09-24T20:33:41.363Z,27.60
2018-09-24T20:36:15.437Z,15.33
2018-09-24T20:38:49.379Z,16.83
2018-09-24T20:41:23.516Z,14.23
2018-09-24T20:43:57.528Z,13.50
2018-09-24T20:46:31.491Z,16.47
2018-09-24T20:49:05.408Z,18.70
2018-09-24T20:51:39.608Z,22.23
2018-09-24T20:54:13.496Z,23.87
2018-09-24T20:56:48.407Z,21.50
2018-09-24T20:59:22.513Z,15.93
2018-09-24T21:01:56.696Z,23.63
2018-09-24T21:04:30.901Z,21.00
2018-09-24T21:07:05.244Z,23.60
2018-09-24T21:09:39.247Z,34.03
2018-09-24T21:12:13.834Z,27.20
2018-09-24T21:14:48.518Z,31.83
2018-09-24T21:17:22.831Z,30.40
2018-09-24T21:19:57.045Z,23.60
2018-09-24T21:22:31.307Z,21.87
2018-09-24T21:25:05.599Z,28.47
2018-09-24T21:27:39.600Z,22.73
2018-09-24T21:30:14.126Z,23.70
2018-09-24T21:32:48.687Z,20.60
2018-09-24T21:35:22.669Z,19.17
2018-09-24T21:37:56.627Z,23.73
2018-09-24T21:40:30.720Z,17.13
2018-09-24T21:43:04.720Z,21.47
2018-09-24T21:45:38.672Z,14.87
2018-09-24T21:48:12.824Z,19.50
2018-09-24T21:50:47.082Z,15.57
2018-09-24T21:53:21.031Z,13.13
2018-09-24T21:55:55.418Z,15.53
2018-09-24T21:58:29.520Z,18.20
2018-09-24T22:01:03.462Z,17.67
2018-09-24T22:03:37.462Z,10.73
2018-09-24T22:06:11.908Z,16.00
2018-09-24T22:08:46.141Z,15.73
2018-09-24T22:11:20.309Z,14.40
2018-09-24T22:13:54.556Z,11.00
2018-09-24T22:16:28.767Z,11.50
2018-09-24T22:19:03.036Z,16.27
2018-09-24T22:21:37.493Z,13.03
2018-09-24T22:26:42.681Z,12.20
2018-09-24T22:29:16.859Z,17.70
2018-09-24T22:31:50.854Z,14.20
2018-09-24T22:34:24.836Z,12.57
2018-09-24T22:36:58.989Z,11.40
2018-09-24T22:39:33.002Z,19.60
2018-09-24T22:42:07.089Z,15.67
2018-09-24T22:44:41.067Z,16.47
2018-09-24T22:47:15.324Z,7.17
2018-09-24T22:49:49.436Z,7.40
2018-09-24T22:52:23.577Z,6.57
2018-09-24T22:54:57.616Z,10.57
2018-09-24T22:57:32.210Z,6.00
2018-09-24T23:00:06.239Z,11.73
2018-09-24T23:02:40.285Z,13.63
2018-09-24T23:05:14.184Z,11.37
2018-09-24T23:07:48.140Z,6.07
2018-09-24T23:10:22.217Z,9.17
2018-09-24T23:12:56.211Z,7.40
2018-09-24T23:15:30.234Z,2.43
2018-09-24T23:18:04.373Z,8.67
2018-09-24T23:20:38.505Z,3.17
2018-09-24T23:23:12.664Z,2.40
2018-09-24T23:25:46.888Z,8.40
2018-09-24T23:28:20.896Z,9.83
2018-09-24T23:30:54.979Z,7.50
2018-09-24T23:33:29.370Z,4.70
2018-09-24T23:36:03.515Z,8.20
2018-09-24T23:38:37.540Z,9.00
2018-09-24T23:41:11.886Z,5.90
2018-09-24T23:43:46.803Z,6.10
2018-09-24T23:46:21.221Z,4.87
2018-09-24T23:48:55.327Z,3.47
2018-09-24T23:51:29.780Z,2.27
2018-09-24T23:54:03.796Z,6.60
2018-09-24T23:56:38.228Z,6.13
2018-09-24T23:59:12.566Z,5.67
